sensor_id;sensor_type;location;lat;lon;timestamp;pressure;altitude;pressure_sealevel;temperature;humidity
43480;BME280;29067;35.492;-97.520;2023-04-27T00:00:46;96987.21;;;9.65;84.81
43480;BME280;29067;35.492;-97.520;2023-04-27T00:03:14;96979.74;;;8.84;88.06
43480;BME280;29067;35.492;-97.520;2023-04-27T00:05:42;96987.08;;;8.65;87.84
43480;BME280;29067;35.492;-97.520;2023-04-27T00:08:10;96993.48;;;9.19;87.09
43480;BME280;29067;35.492;-97.520;2023-04-27T00:10:37;96997.86;;;8.46;89.69
43480;BME280;29067;35.492;-97.520;2023-04-27T00:13:05;96997.88;;;8.25;91.86
43480;BME280;29067;35.492;-97.520;2023-04-27T00:15:33;96995.17;;;8.27;92.38
43480;BME280;29067;35.492;-97.520;2023-04-27T00:18:01;96994.98;;;8.08;95.61
43480;BME280;29067;35.492;-97.520;2023-04-27T00:20:29;96995.29;;;8.45;94.46
43480;BME280;29067;35.492;-97.520;2023-04-27T00:22:56;96998.02;;;9.50;94.60
43480;BME280;29067;35.492;-97.520;2023-04-27T00:25:25;96996.34;;;8.52;95.12
43480;BME280;29067;35.492;-97.520;2023-04-27T00:27:53;96997.84;;;7.59;100.00
43480;BME280;29067;35.492;-97.520;2023-04-27T00:30:21;96996.44;;;8.39;96.39
43480;BME280;29067;35.492;-97.520;2023-04-27T00:32:48;97001.48;;;8.54;99.36
43480;BME280;29067;35.492;-97.520;2023-04-27T00:35:16;97004.86;;;8.49;100.00
43480;BME280;29067;35.492;-97.520;2023-04-27T00:37:44;97007.53;;;8.18;97.84
43480;BME280;29067;35.492;-97.520;2023-04-27T00:40:12;97002.88;;;9.09;91.46
43480;BME280;29067;35.492;-97.520;2023-04-27T00:42:40;97006.52;;;9.43;89.31
43480;BME280;29067;35.492;-97.520;2023-04-27T00:45:10;97009.94;;;8.27;95.26
43480;BME280;29067;35.492;-97.520;2023-04-27T00:47:38;97008.48;;;9.19;90.18
43480;BME280;29067;35.492;-97.520;2023-04-27T00:50:07;97010.92;;;9.12;92.39
43480;BME280;29067;35.492;-97.520;2023-04-27T00:52:36;97012.43;;;9.21;88.18
43480;BME280;29067;35.492;-97.520;2023-04-27T00:55:06;97007.42;;;8.93;90.51
43480;BME280;29067;35.492;-97.520;2023-04-27T00:57:33;97006.30;;;9.84;87.22
43480;BME280;29067;35.492;-97.520;2023-04-27T01:00:02;97011.31;;;9.91;87.66
43480;BME280;29067;35.492;-97.520;2023-04-27T01:02:30;97020.96;;;7.84;96.34
43480;BME280;29067;35.492;-97.520;2023-04-27T01:04:58;97021.34;;;9.12;94.76
43480;BME280;29067;35.492;-97.520;2023-04-27T01:07:26;97021.04;;;8.41;94.49
43480;BME280;29067;35.492;-97.520;2023-04-27T01:09:54;97020.36;;;9.26;91.03
43480;BME280;29067;35.492;-97.520;2023-04-27T01:12:22;97024.55;;;9.09;90.34
43480;BME280;29067;35.492;-97.520;2023-04-27T01:14:50;97024.33;;;9.89;88.03
43480;BME280;29067;35.492;-97.520;2023-04-27T01:17:18;97022.99;;;8.27;94.86
43480;BME280;29067;35.492;-97.520;2023-04-27T01:19:45;97020.14;;;7.94;97.37
43480;BME280;29067;35.492;-97.520;2023-04-27T01:22:13;97021.75;;;7.61;100.00
43480;BME280;29067;35.492;-97.520;2023-04-27T01:24:42;97021.14;;;7.45;100.00
43480;BME280;29067;35.492;-97.520;2023-04-27T01:27:10;97022.27;;;7.53;100.00
43480;BME280;29067;35.492;-97.520;2023-04-27T01:29:38;97021.24;;;7.77;100.00
43480;BME280;29067;35.492;-97.520;2023-04-27T01:32:06;97021.11;;;7.32;100.00
43480;BME280;29067;35.492;-97.520;2023-04-27T01:34:34;97023.22;;;7.33;100.00
43480;BME280;29067;35.492;-97.520;2023-04-27T01:37:02;97022.03;;;6.72;100.00
43480;BME280;29067;35.492;-97.520;2023-04-27T01:39:30;97021.86;;;7.55;100.00
43480;BME280;29067;35.492;-97.520;2023-04-27T01:41:57;97019.29;;;7.97;100.00
43480;BME280;29067;35.492;-97.520;2023-04-27T01:44:25;97024.13;;;6.17;100.00
43480;BME280;29067;35.492;-97.520;2023-04-27T01:46:53;97025.54;;;7.40;100.00
43480;BME280;29067;35.492;-97.520;2023-04-27T01:49:21;97020.33;;;7.73;100.00
43480;BME280;29067;35.492;-97.520;2023-04-27T01:51:50;97024.68;;;7.47;100.00
43480;BME280;29067;35.492;-97.520;2023-04-27T01:54:18;97034.88;;;6.25;100.00
43480;BME280;29067;35.492;-97.520;2023-04-27T01:56:45;97035.93;;;7.39;100.00
43480;BME280;29067;35.492;-97.520;2023-04-27T01:59:14;97043.90;;;7.20;100.00
43480;BME280;29067;35.492;-97.520;2023-04-27T02:01:42;97044.01;;;6.88;100.00
43480;BME280;29067;35.492;-97.520;2023-04-27T02:04:10;97046.68;;;5.83;100.00
43480;BME280;29067;35.492;-97.520;2023-04-27T02:06:37;97044.32;;;7.49;100.00
43480;BME280;29067;35.492;-97.520;2023-04-27T02:09:06;97050.21;;;6.65;100.00
43480;BME280;29067;35.492;-97.520;2023-04-27T02:11:33;97049.49;;;7.45;100.00
43480;BME280;29067;35.492;-97.520;2023-04-27T02:14:01;97056.46;;;6.95;100.00
43480;BME280;29067;35.492;-97.520;2023-04-27T02:16:29;97063.69;;;7.10;100.00
43480;BME280;29067;35.492;-97.520;2023-04-27T02:18:57;97062.23;;;7.34;100.00
43480;BME280;29067;35.492;-97.520;2023-04-27T02:21:25;97064.25;;;7.38;100.00
43480;BME280;29067;35.492;-97.520;2023-04-27T02:23:52;97067.07;;;7.40;100.00
43480;BME280;29067;35.492;-97.520;2023-04-27T02:26:21;97065.66;;;8.38;100.00
43480;BME280;29067;35.492;-97.520;2023-04-27T02:28:50;97067.20;;;8.06;100.00
43480;BME280;29067;35.492;-97.520;2023-04-27T02:31:19;97068.26;;;8.31;100.00
43480;BME280;29067;35.492;-97.520;2023-04-27T02:33:46;97066.36;;;8.42;95.22
43480;BME280;29067;35.492;-97.520;2023-04-27T02:36:14;97077.66;;;7.76;100.00
43480;BME280;29067;35.492;-97.520;2023-04-27T02:38:42;97090.27;;;6.77;100.00
43480;BME280;29067;35.492;-97.520;2023-04-27T02:41:10;97084.15;;;8.36;99.93
43480;BME280;29067;35.492;-97.520;2023-04-27T02:43:38;97083.85;;;7.98;100.00
43480;BME280;29067;35.492;-97.520;2023-04-27T02:46:05;97080.75;;;9.11;91.72
43480;BME280;29067;35.492;-97.520;2023-04-27T02:48:33;97076.34;;;9.27;90.90
43480;BME280;29067;35.492;-97.520;2023-04-27T02:51:03;97075.96;;;8.47;93.44
43480;BME280;29067;35.492;-97.520;2023-04-27T02:53:31;97075.02;;;7.88;95.45
43480;BME280;29067;35.492;-97.520;2023-04-27T02:55:59;97070.96;;;8.73;90.90
43480;BME280;29067;35.492;-97.520;2023-04-27T02:58:27;97078.18;;;7.61;95.45
43480;BME280;29067;35.492;-97.520;2023-04-27T03:00:56;97078.05;;;8.89;89.52
43480;BME280;29067;35.492;-97.520;2023-04-27T03:03:24;97086.29;;;8.39;90.89
43480;BME280;29067;35.492;-97.520;2023-04-27T03:05:52;97088.58;;;9.13;89.23
43480;BME280;29067;35.492;-97.520;2023-04-27T03:08:21;97091.96;;;9.24;86.30
43480;BME280;29067;35.492;-97.520;2023-04-27T03:10:49;97085.99;;;8.54;88.63
43480;BME280;29067;35.492;-97.520;2023-04-27T03:13:17;97079.57;;;10.20;84.99
43480;BME280;29067;35.492;-97.520;2023-04-27T03:15:45;97078.47;;;8.54;89.88
43480;BME280;29067;35.492;-97.520;2023-04-27T03:18:13;97079.33;;;9.01;88.33
43480;BME280;29067;35.492;-97.520;2023-04-27T03:20:42;97080.65;;;9.61;86.38
43480;BME280;29067;35.492;-97.520;2023-04-27T03:23:10;97084.39;;;9.36;87.55
43480;BME280;29067;35.492;-97.520;2023-04-27T03:25:37;97085.03;;;10.30;86.07
43480;BME280;29067;35.492;-97.520;2023-04-27T03:28:05;97090.05;;;9.90;85.42
43480;BME280;29067;35.492;-97.520;2023-04-27T03:30:33;97089.89;;;10.14;83.56
43480;BME280;29067;35.492;-97.520;2023-04-27T03:33:01;97094.27;;;9.63;81.94
43480;BME280;29067;35.492;-97.520;2023-04-27T03:35:29;97100.34;;;9.56;82.80
43480;BME280;29067;35.492;-97.520;2023-04-27T03:37:56;97101.56;;;10.12;79.82
43480;BME280;29067;35.492;-97.520;2023-04-27T03:40:24;97099.45;;;9.94;81.21
43480;BME280;29067;35.492;-97.520;2023-04-27T03:42:52;97096.54;;;9.93;81.90
43480;BME280;29067;35.492;-97.520;2023-04-27T03:45:20;97092.22;;;10.43;79.15
43480;BME280;29067;35.492;-97.520;2023-04-27T03:47:48;97091.61;;;9.17;82.40
43480;BME280;29067;35.492;-97.520;2023-04-27T03:50:17;97092.14;;;9.40;82.55
43480;BME280;29067;35.492;-97.520;2023-04-27T03:52:46;97090.65;;;9.98;81.49
43480;BME280;29067;35.492;-97.520;2023-04-27T03:55:15;97086.77;;;10.67;80.62
43480;BME280;29067;35.492;-97.520;2023-04-27T03:57:42;97091.07;;;9.62;81.78
43480;BME280;29067;35.492;-97.520;2023-04-27T04:00:11;97090.18;;;11.16;76.25
43480;BME280;29067;35.492;-97.520;2023-04-27T04:02:39;97089.69;;;9.92;80.04
43480;BME280;29067;35.492;-97.520;2023-04-27T04:05:07;97084.99;;;10.61;77.39
43480;BME280;29067;35.492;-97.520;2023-04-27T04:07:35;97086.68;;;11.02;76.75
43480;BME280;29067;35.492;-97.520;2023-04-27T04:10:05;97083.93;;;10.99;76.58
43480;BME280;29067;35.492;-97.520;2023-04-27T04:12:33;97087.61;;;10.60;78.10
43480;BME280;29067;35.492;-97.520;2023-04-27T04:15:01;97090.60;;;10.26;80.25
43480;BME280;29067;35.492;-97.520;2023-04-27T04:17:28;97084.65;;;10.48;78.52
43480;BME280;29067;35.492;-97.520;2023-04-27T04:19:57;97078.72;;;10.11;78.72
43480;BME280;29067;35.492;-97.520;2023-04-27T04:22:24;97078.61;;;9.40;81.58
43480;BME280;29067;35.492;-97.520;2023-04-27T04:24:52;97073.65;;;9.34;83.08
43480;BME280;29067;35.492;-97.520;2023-04-27T04:27:20;97069.45;;;9.93;80.59
43480;BME280;29067;35.492;-97.520;2023-04-27T04:29:48;97071.74;;;8.38;87.40
43480;BME280;29067;35.492;-97.520;2023-04-27T04:32:16;97068.56;;;9.62;83.00
43480;BME280;29067;35.492;-97.520;2023-04-27T04:34:47;97065.23;;;9.98;83.26
43480;BME280;29067;35.492;-97.520;2023-04-27T04:37:15;97061.84;;;9.09;85.51
43480;BME280;29067;35.492;-97.520;2023-04-27T04:39:43;97062.78;;;9.31;85.61
43480;BME280;29067;35.492;-97.520;2023-04-27T04:42:10;97063.65;;;8.93;86.27
43480;BME280;29067;35.492;-97.520;2023-04-27T04:44:38;97054.76;;;9.19;87.63
43480;BME280;29067;35.492;-97.520;2023-04-27T04:47:06;97049.77;;;9.03;88.68
43480;BME280;29067;35.492;-97.520;2023-04-27T04:49:34;97041.75;;;9.51;86.49
43480;BME280;29067;35.492;-97.520;2023-04-27T04:52:03;97043.76;;;8.71;88.59
43480;BME280;29067;35.492;-97.520;2023-04-27T04:54:31;97038.66;;;9.52;86.63
43480;BME280;29067;35.492;-97.520;2023-04-27T04:56:59;97034.83;;;9.01;88.54
43480;BME280;29067;35.492;-97.520;2023-04-27T04:59:27;97028.05;;;9.27;88.98
43480;BME280;29067;35.492;-97.520;2023-04-27T05:01:54;97028.96;;;9.08;89.86
43480;BME280;29067;35.492;-97.520;2023-04-27T05:04:22;97026.94;;;7.96;96.26
43480;BME280;29067;35.492;-97.520;2023-04-27T05:06:50;97025.57;;;8.64;92.64
43480;BME280;29067;35.492;-97.520;2023-04-27T05:09:18;97030.91;;;9.01;89.86
43480;BME280;29067;35.492;-97.520;2023-04-27T05:11:46;97032.69;;;8.43;93.90
43480;BME280;29067;35.492;-97.520;2023-04-27T05:14:14;97032.22;;;9.32;90.58
43480;BME280;29067;35.492;-97.520;2023-04-27T05:16:41;97038.77;;;9.64;87.52
43480;BME280;29067;35.492;-97.520;2023-04-27T05:19:09;97044.72;;;9.19;88.96
43480;BME280;29067;35.492;-97.520;2023-04-27T05:21:38;97046.38;;;9.70;83.82
43480;BME280;29067;35.492;-97.520;2023-04-27T05:24:07;97047.00;;;9.80;84.39
43480;BME280;29067;35.492;-97.520;2023-04-27T05:26:35;97046.01;;;9.67;82.86
43480;BME280;29067;35.492;-97.520;2023-04-27T05:29:03;97046.79;;;10.10;81.42
43480;BME280;29067;35.492;-97.520;2023-04-27T05:31:31;97037.18;;;9.35;87.52
43480;BME280;29067;35.492;-97.520;2023-04-27T05:33:59;97025.68;;;7.65;92.56
43480;BME280;29067;35.492;-97.520;2023-04-27T05:36:26;97009.40;;;6.98;96.14
43480;BME280;29067;35.492;-97.520;2023-04-27T05:38:54;97013.12;;;6.36;100.00
43480;BME280;29067;35.492;-97.520;2023-04-27T05:41:22;97016.35;;;7.35;100.00
43480;BME280;29067;35.492;-97.520;2023-04-27T05:43:50;97016.53;;;6.72;100.00
43480;BME280;29067;35.492;-97.520;2023-04-27T05:46:18;97013.72;;;7.68;100.00
43480;BME280;29067;35.492;-97.520;2023-04-27T05:48:46;97006.21;;;7.37;100.00
43480;BME280;29067;35.492;-97.520;2023-04-27T05:51:14;96999.76;;;8.32;98.57
43480;BME280;29067;35.492;-97.520;2023-04-27T05:53:42;97000.17;;;7.79;100.00
43480;BME280;29067;35.492;-97.520;2023-04-27T05:56:11;97006.45;;;7.72;100.00
43480;BME280;29067;35.492;-97.520;2023-04-27T05:58:39;97006.78;;;8.20;97.41
43480;BME280;29067;35.492;-97.520;2023-04-27T06:01:07;97009.56;;;8.46;97.34
43480;BME280;29067;35.492;-97.520;2023-04-27T06:03:35;97008.68;;;9.01;93.17
43480;BME280;29067;35.492;-97.520;2023-04-27T06:06:03;97005.23;;;8.88;89.81
43480;BME280;29067;35.492;-97.520;2023-04-27T06:08:32;97002.08;;;9.95;86.84
43480;BME280;29067;35.492;-97.520;2023-04-27T06:11:00;97001.65;;;9.37;89.80
43480;BME280;29067;35.492;-97.520;2023-04-27T06:13:27;96998.72;;;9.86;83.29
43480;BME280;29067;35.492;-97.520;2023-04-27T06:15:55;96995.81;;;10.33;82.82
43480;BME280;29067;35.492;-97.520;2023-04-27T06:23:19;96995.78;;;10.95;85.78
43480;BME280;29067;35.492;-97.520;2023-04-27T06:25:46;96997.42;;;9.55;82.34
43480;BME280;29067;35.492;-97.520;2023-04-27T06:28:14;96994.49;;;10.53;81.61
43480;BME280;29067;35.492;-97.520;2023-04-27T06:30:42;96991.12;;;10.03;81.63
43480;BME280;29067;35.492;-97.520;2023-04-27T06:33:10;96980.90;;;10.41;78.70
43480;BME280;29067;35.492;-97.520;2023-04-27T06:35:38;96978.37;;;9.73;80.07
43480;BME280;29067;35.492;-97.520;2023-04-27T06:38:06;96973.20;;;8.98;82.79
43480;BME280;29067;35.492;-97.520;2023-04-27T06:40:34;96967.41;;;9.36;81.41
43480;BME280;29067;35.492;-97.520;2023-04-27T06:43:02;96967.91;;;9.61;82.05
43480;BME280;29067;35.492;-97.520;2023-04-27T06:45:30;96971.36;;;9.03;83.75
43480;BME280;29067;35.492;-97.520;2023-04-27T06:47:58;96975.07;;;8.49;86.70
43480;BME280;29067;35.492;-97.520;2023-04-27T06:50:25;96969.32;;;9.57;82.47
43480;BME280;29067;35.492;-97.520;2023-04-27T06:52:53;96972.66;;;9.27;83.41
43480;BME280;29067;35.492;-97.520;2023-04-27T06:55:21;96974.52;;;9.89;80.21
43480;BME280;29067;35.492;-97.520;2023-04-27T06:57:49;96971.34;;;9.81;79.81
43480;BME280;29067;35.492;-97.520;2023-04-27T07:00:18;96965.01;;;9.70;81.77
43480;BME280;29067;35.492;-97.520;2023-04-27T07:02:46;96963.44;;;9.88;81.50
43480;BME280;29067;35.492;-97.520;2023-04-27T07:05:19;96957.91;;;9.60;81.17
43480;BME280;29067;35.492;-97.520;2023-04-27T07:07:47;96960.60;;;8.92;82.25
43480;BME280;29067;35.492;-97.520;2023-04-27T07:10:15;96958.52;;;10.13;78.05
43480;BME280;29067;35.492;-97.520;2023-04-27T07:12:42;96953.34;;;10.31;77.90
43480;BME280;29067;35.492;-97.520;2023-04-27T07:15:10;96954.38;;;10.04;76.76
43480;BME280;29067;35.492;-97.520;2023-04-27T07:17:38;96949.44;;;10.82;76.61
43480;BME280;29067;35.492;-97.520;2023-04-27T07:20:07;96953.35;;;9.95;77.52
43480;BME280;29067;35.492;-97.520;2023-04-27T07:22:35;96950.37;;;10.37;78.78
43480;BME280;29067;35.492;-97.520;2023-04-27T07:25:04;96940.58;;;9.78;78.38
43480;BME280;29067;35.492;-97.520;2023-04-27T07:27:32;96930.97;;;9.69;79.03
43480;BME280;29067;35.492;-97.520;2023-04-27T07:30:00;96933.81;;;9.88;77.30
43480;BME280;29067;35.492;-97.520;2023-04-27T07:32:27;96935.55;;;10.52;76.79
43480;BME280;29067;35.492;-97.520;2023-04-27T07:34:55;96938.56;;;9.38;78.34
43480;BME280;29067;35.492;-97.520;2023-04-27T07:37:23;96934.22;;;9.63;78.16
43480;BME280;29067;35.492;-97.520;2023-04-27T07:39:51;96929.69;;;9.48;77.39
43480;BME280;29067;35.492;-97.520;2023-04-27T07:42:19;96919.68;;;8.90;81.18
43480;BME280;29067;35.492;-97.520;2023-04-27T07:44:47;96915.25;;;8.80;79.75
43480;BME280;29067;35.492;-97.520;2023-04-27T07:47:15;96911.78;;;8.30;83.00
43480;BME280;29067;35.492;-97.520;2023-04-27T07:49:43;96909.86;;;8.77;83.73
43480;BME280;29067;35.492;-97.520;2023-04-27T07:52:12;96906.14;;;9.01;83.29
43480;BME280;29067;35.492;-97.520;2023-04-27T07:54:40;96909.48;;;7.82;85.04
43480;BME280;29067;35.492;-97.520;2023-04-27T07:57:10;96901.98;;;9.99;80.19
43480;BME280;29067;35.492;-97.520;2023-04-27T07:59:38;96891.38;;;9.18;82.74
43480;BME280;29067;35.492;-97.520;2023-04-27T08:02:07;96890.42;;;9.87;78.66
43480;BME280;29067;35.492;-97.520;2023-04-27T08:04:34;96890.62;;;8.78;83.20
43480;BME280;29067;35.492;-97.520;2023-04-27T08:07:07;96887.27;;;9.35;80.60
43480;BME280;29067;35.492;-97.520;2023-04-27T08:09:35;96878.51;;;10.19;78.72
43480;BME280;29067;35.492;-97.520;2023-04-27T08:12:03;96877.43;;;9.97;78.52
43480;BME280;29067;35.492;-97.520;2023-04-27T08:14:33;96872.23;;;7.85;84.76
43480;BME280;29067;35.492;-97.520;2023-04-27T08:17:02;96872.43;;;9.28;81.37
43480;BME280;29067;35.492;-97.520;2023-04-27T08:19:30;96869.81;;;8.58;84.01
43480;BME280;29067;35.492;-97.520;2023-04-27T08:21:58;96868.15;;;8.55;85.41
43480;BME280;29067;35.492;-97.520;2023-04-27T08:24:25;96862.29;;;9.06;82.09
43480;BME280;29067;35.492;-97.520;2023-04-27T08:26:53;96859.01;;;7.85;84.40
43480;BME280;29067;35.492;-97.520;2023-04-27T08:29:21;96858.18;;;9.31;83.90
43480;BME280;29067;35.492;-97.520;2023-04-27T08:31:49;96855.72;;;8.38;82.90
43480;BME280;29067;35.492;-97.520;2023-04-27T08:34:18;96856.24;;;8.67;83.81
43480;BME280;29067;35.492;-97.520;2023-04-27T08:36:45;96856.99;;;9.10;81.89
43480;BME280;29067;35.492;-97.520;2023-04-27T08:39:13;96855.41;;;9.13;81.79
43480;BME280;29067;35.492;-97.520;2023-04-27T08:41:42;96852.85;;;8.70;80.56
43480;BME280;29067;35.492;-97.520;2023-04-27T08:44:15;96847.44;;;8.35;83.60
43480;BME280;29067;35.492;-97.520;2023-04-27T08:46:43;96844.20;;;8.91;83.28
43480;BME280;29067;35.492;-97.520;2023-04-27T08:49:11;96844.82;;;8.28;83.45
43480;BME280;29067;35.492;-97.520;2023-04-27T08:51:39;96843.88;;;9.15;81.12
43480;BME280;29067;35.492;-97.520;2023-04-27T08:54:08;96844.59;;;8.70;82.57
43480;BME280;29067;35.492;-97.520;2023-04-27T08:56:35;96846.12;;;9.03;82.16
43480;BME280;29067;35.492;-97.520;2023-04-27T08:59:11;96848.20;;;9.73;78.47
43480;BME280;29067;35.492;-97.520;2023-04-27T09:01:44;96841.81;;;9.77;79.01
43480;BME280;29067;35.492;-97.520;2023-04-27T09:04:12;96842.72;;;9.38;80.29
43480;BME280;29067;35.492;-97.520;2023-04-27T09:06:41;96843.44;;;8.86;82.19
43480;BME280;29067;35.492;-97.520;2023-04-27T09:09:08;96839.12;;;8.41;82.66
43480;BME280;29067;35.492;-97.520;2023-04-27T09:11:38;96838.58;;;9.09;82.52
43480;BME280;29067;35.492;-97.520;2023-04-27T09:14:16;96841.18;;;10.37;81.75
43480;BME280;29067;35.492;-97.520;2023-04-27T09:16:52;96844.52;;;9.63;80.86
43480;BME280;29067;35.492;-97.520;2023-04-27T09:19:24;96844.30;;;9.79;78.17
43480;BME280;29067;35.492;-97.520;2023-04-27T09:22:02;96845.66;;;9.44;78.91
43480;BME280;29067;35.492;-97.520;2023-04-27T09:24:31;96842.67;;;10.00;78.50
43480;BME280;29067;35.492;-97.520;2023-04-27T09:26:59;96847.58;;;8.69;81.58
43480;BME280;29067;35.492;-97.520;2023-04-27T09:29:36;96853.10;;;7.97;85.83
43480;BME280;29067;35.492;-97.520;2023-04-27T09:32:14;96858.40;;;7.71;87.36
43480;BME280;29067;35.492;-97.520;2023-04-27T09:34:43;96861.92;;;9.19;84.95
43480;BME280;29067;35.492;-97.520;2023-04-27T09:37:11;96867.38;;;9.49;82.19
43480;BME280;29067;35.492;-97.520;2023-04-27T09:39:41;96871.91;;;9.13;81.80
43480;BME280;29067;35.492;-97.520;2023-04-27T09:42:11;96877.73;;;9.39;80.88
43480;BME280;29067;35.492;-97.520;2023-04-27T09:44:39;96882.88;;;9.62;78.91
43480;BME280;29067;35.492;-97.520;2023-04-27T09:47:07;96884.42;;;8.41;84.99
43480;BME280;29067;35.492;-97.520;2023-04-27T09:49:36;96887.09;;;8.44;83.30
43480;BME280;29067;35.492;-97.520;2023-04-27T09:52:04;96888.45;;;9.33;80.52
43480;BME280;29067;35.492;-97.520;2023-04-27T09:54:34;96884.02;;;9.75;82.76
43480;BME280;29067;35.492;-97.520;2023-04-27T09:57:14;96883.23;;;8.59;84.76
43480;BME280;29067;35.492;-97.520;2023-04-27T09:59:57;96879.95;;;9.27;82.31
43480;BME280;29067;35.492;-97.520;2023-04-27T10:02:30;96878.99;;;10.03;79.68
43480;BME280;29067;35.492;-97.520;2023-04-27T10:05:22;96877.65;;;8.90;81.16
43480;BME280;29067;35.492;-97.520;2023-04-27T10:07:55;96880.73;;;9.19;81.98
43480;BME280;29067;35.492;-97.520;2023-04-27T10:10:23;96887.99;;;9.70;79.23
43480;BME280;29067;35.492;-97.520;2023-04-27T10:13:00;96889.63;;;9.90;78.64
43480;BME280;29067;35.492;-97.520;2023-04-27T10:15:29;96888.36;;;9.07;79.64
43480;BME280;29067;35.492;-97.520;2023-04-27T10:18:04;96885.11;;;8.49;81.59
43480;BME280;29067;35.492;-97.520;2023-04-27T10:20:34;96884.18;;;8.36;83.88
43480;BME280;29067;35.492;-97.520;2023-04-27T10:23:03;96877.59;;;8.52;83.01
43480;BME280;29067;35.492;-97.520;2023-04-27T10:25:37;96870.02;;;8.37;85.97
43480;BME280;29067;35.492;-97.520;2023-04-27T10:28:06;96864.10;;;9.28;84.39
43480;BME280;29067;35.492;-97.520;2023-04-27T10:30:35;96862.97;;;8.14;88.10
43480;BME280;29067;35.492;-97.520;2023-04-27T10:33:05;96860.44;;;8.30;86.10
43480;BME280;29067;35.492;-97.520;2023-04-27T10:35:35;96861.55;;;8.13;89.52
43480;BME280;29067;35.492;-97.520;2023-04-27T10:38:07;96866.40;;;7.99;89.37
43480;BME280;29067;35.492;-97.520;2023-04-27T10:40:36;96864.74;;;8.54;85.98
43480;BME280;29067;35.492;-97.520;2023-04-27T10:43:14;96865.00;;;8.68;84.84
43480;BME280;29067;35.492;-97.520;2023-04-27T10:45:43;96868.62;;;9.11;80.80
43480;BME280;29067;35.492;-97.520;2023-04-27T10:48:12;96873.99;;;9.24;82.05
43480;BME280;29067;35.492;-97.520;2023-04-27T10:50:41;96874.82;;;9.11;81.57
43480;BME280;29067;35.492;-97.520;2023-04-27T10:53:09;96879.44;;;9.39;79.73
43480;BME280;29067;35.492;-97.520;2023-04-27T10:55:37;96880.42;;;9.36;79.20
43480;BME280;29067;35.492;-97.520;2023-04-27T10:58:05;96878.93;;;9.85;78.34
43480;BME280;29067;35.492;-97.520;2023-04-27T11:03:12;96870.03;;;8.88;80.39
43480;BME280;29067;35.492;-97.520;2023-04-27T11:05:41;96865.16;;;8.72;81.75
43480;BME280;29067;35.492;-97.520;2023-04-27T11:08:10;96864.99;;;7.90;85.58
43480;BME280;29067;35.492;-97.520;2023-04-27T11:10:40;96856.57;;;8.49;83.25
43480;BME280;29067;35.492;-97.520;2023-04-27T11:13:21;96853.37;;;8.96;83.09
43480;BME280;29067;35.492;-97.520;2023-04-27T11:15:50;96852.85;;;7.73;84.42
43480;BME280;29067;35.492;-97.520;2023-04-27T11:18:20;96852.06;;;7.96;86.12
43480;BME280;29067;35.492;-97.520;2023-04-27T11:20:50;96849.95;;;8.39;84.82
43480;BME280;29067;35.492;-97.520;2023-04-27T11:23:27;96842.86;;;8.88;82.32
43480;BME280;29067;35.492;-97.520;2023-04-27T11:25:55;96841.90;;;8.74;82.77
43480;BME280;29067;35.492;-97.520;2023-04-27T11:28:24;96839.57;;;8.73;81.28
43480;BME280;29067;35.492;-97.520;2023-04-27T11:30:59;96838.66;;;9.27;79.93
43480;BME280;29067;35.492;-97.520;2023-04-27T11:33:27;96832.80;;;8.34;81.72
43480;BME280;29067;35.492;-97.520;2023-04-27T11:35:55;96830.26;;;9.56;80.18
43480;BME280;29067;35.492;-97.520;2023-04-27T11:38:23;96827.22;;;10.75;74.92
43480;BME280;29067;35.492;-97.520;2023-04-27T11:41:00;96826.07;;;9.57;76.67
43480;BME280;29067;35.492;-97.520;2023-04-27T11:43:28;96823.09;;;9.95;75.68
43480;BME280;29067;35.492;-97.520;2023-04-27T11:45:56;96819.99;;;10.20;74.39
43480;BME280;29067;35.492;-97.520;2023-04-27T11:48:25;96815.85;;;9.82;75.31
43480;BME280;29067;35.492;-97.520;2023-04-27T11:50:55;96808.41;;;10.21;74.03
43480;BME280;29067;35.492;-97.520;2023-04-27T11:53:32;96802.98;;;9.78;73.22
43480;BME280;29067;35.492;-97.520;2023-04-27T11:56:02;96800.65;;;8.91;77.63
43480;BME280;29067;35.492;-97.520;2023-04-27T11:58:38;96795.25;;;9.18;77.59
43480;BME280;29067;35.492;-97.520;2023-04-27T12:01:07;96795.62;;;8.92;78.86
43480;BME280;29067;35.492;-97.520;2023-04-27T12:03:36;96797.13;;;9.59;78.77
43480;BME280;29067;35.492;-97.520;2023-04-27T12:06:04;96798.83;;;8.00;80.76
43480;BME280;29067;35.492;-97.520;2023-04-27T12:08:32;96800.42;;;7.76;83.26
43480;BME280;29067;35.492;-97.520;2023-04-27T12:11:00;96808.34;;;7.23;85.19
43480;BME280;29067;35.492;-97.520;2023-04-27T12:13:28;96811.70;;;8.77;83.89
43480;BME280;29067;35.492;-97.520;2023-04-27T12:15:56;96817.45;;;8.55;85.59
43480;BME280;29067;35.492;-97.520;2023-04-27T12:18:23;96819.76;;;8.47;83.43
43480;BME280;29067;35.492;-97.520;2023-04-27T12:20:52;96824.49;;;8.94;83.35
43480;BME280;29067;35.492;-97.520;2023-04-27T12:23:20;96828.46;;;7.54;89.33
43480;BME280;29067;35.492;-97.520;2023-04-27T12:25:48;96826.57;;;7.35;92.06
43480;BME280;29067;35.492;-97.520;2023-04-27T12:28:16;96822.41;;;7.26;89.42
43480;BME280;29067;35.492;-97.520;2023-04-27T12:30:43;96823.05;;;7.04;93.46
43480;BME280;29067;35.492;-97.520;2023-04-27T12:33:11;96824.16;;;7.30;93.13
43480;BME280;29067;35.492;-97.520;2023-04-27T12:35:39;96817.90;;;8.18;88.15
43480;BME280;29067;35.492;-97.520;2023-04-27T12:38:07;96819.00;;;8.06;85.27
43480;BME280;29067;35.492;-97.520;2023-04-27T12:40:35;96817.74;;;7.57;87.88
43480;BME280;29067;35.492;-97.520;2023-04-27T12:43:03;96817.81;;;7.18;88.65
43480;BME280;29067;35.492;-97.520;2023-04-27T12:45:30;96811.98;;;8.13;87.97
43480;BME280;29067;35.492;-97.520;2023-04-27T12:47:58;96813.57;;;7.84;87.01
43480;BME280;29067;35.492;-97.520;2023-04-27T12:50:26;96808.23;;;7.74;87.65
43480;BME280;29067;35.492;-97.520;2023-04-27T12:52:54;96807.46;;;7.49;88.48
43480;BME280;29067;35.492;-97.520;2023-04-27T12:55:22;96806.17;;;7.81;87.94
43480;BME280;29067;35.492;-97.520;2023-04-27T12:57:49;96808.85;;;7.72;87.59
43480;BME280;29067;35.492;-97.520;2023-04-27T13:00:23;96814.12;;;7.61;87.59
43480;BME280;29067;35.492;-97.520;2023-04-27T13:02:51;96823.06;;;7.62;89.60